Zeran (malta) — 9HHJ5 — position and weather

sailwx.info

Track history (hours):
 
Tides and Currents Weather Stations Pressure Air Temp Water Temp Dewpoint Dewpoint Depression Visibility Wind Speed Wind Dir Waves Ship Positions

Zeran (malta)

Last reported at 2016-May-29 09:33 UTC. Time now 2016-May-29 09:39 UTC.
Position N 43°57' E 009°07'.

Length 148 m; beam 24 m.

Type: Ship (hazmat cat A). MMSI: 249846000.

Date/timePositionNaut miles runAvg speedWind from/ knotsBaromVisibWave heightAir tempDewpointWater temp
2016-May-29 09:33N 43°57' E 009°07'1010.3
2016-May-29 08:33N 44°07' E 009°02'1010.4
2016-May-29 07:33N 44°17' E 008°57'9 7.3
2016-May-29 06:23N 44°24' E 008°53'0 0.0
2016-May-29 05:32N 44°24' E 008°53'0 0.0
2016-May-29 04:32N 44°24' E 008°53'0 0.0
2016-May-29 03:32N 44°24' E 008°53'0 0.0
2016-May-29 02:29N 44°24' E 008°53'0 0.0
2016-May-29 01:29N 44°24' E 008°53'0 0.0
2016-May-29 00:32N 44°24' E 008°53'0 0.0
2016-May-28 23:32N 44°24' E 008°53'0 0.0
2016-May-28 22:32N 44°24' E 008°53'0 0.0
2016-May-28 21:32N 44°24' E 008°53'0 0.0
2016-May-28 20:32N 44°24' E 008°53'0 0.0
2016-May-28 19:32N 44°24' E 008°53'0 0.0
2016-May-28 18:32N 44°24' E 008°53'0 0.0
2016-May-28 17:29N 44°24' E 008°53'0 0.0
2016-May-28 16:32N 44°24' E 008°53'0 0.0
2016-May-28 15:32N 44°24' E 008°53'0 0.0
2016-May-28 14:32N 44°24' E 008°53'0 0.0
2016-May-28 13:32N 44°24' E 008°53'0 0.0
2016-May-28 12:29N 44°24' E 008°53'0 0.0
2016-May-28 11:29N 44°24' E 008°53'0 0.0
2016-May-28 10:32N 44°24' E 008°53'0 0.0
2016-May-28 09:32N 44°24' E 008°53'0 0.0
2016-May-28 08:32N 44°24' E 008°53'0 0.1
2016-May-28 07:33N 44°24' E 008°52'6 5.8
2016-May-28 06:33N 44°21' E 008°59'9 9.5
2016-May-28 05:33N 44°12' E 009°03'1414.5
2016-May-28 04:33N 43°58' E 009°10'1414.2
2016-May-28 03:33N 43°45' E 009°18'1414.4
2016-May-28 02:33N 43°32' E 009°24'1414.2
2016-May-28 01:33N 43°18' E 009°31'1414.2
2016-May-28 00:33N 43°05' E 009°38'1414.0
2016-May-27 23:33N 42°53' E 009°48'1414.2
2016-May-27 22:33N 42°44' E 010°03'1413.8
2016-May-27 21:33N 42°35' E 010°17'1413.6
2016-May-27 20:33N 42°26' E 010°31'3013.8
2016-May-27 18:22N 42°08' E 011°03'1113.7
2016-May-27 17:33N 42°02' E 011°16'1413.7
2016-May-27 16:33N 41°54' E 011°31'1413.9
2016-May-27 15:34N 41°46' E 011°46'1414.1
2016-May-27 14:33N 41°38' E 012°02'1413.9
2016-May-27 13:33N 41°30' E 012°17'1413.6
2016-May-27 12:33N 41°22' E 012°32'1413.5
2016-May-27 11:33N 41°15' E 012°48'1413.7
2016-May-27 10:33N 41°08' E 013°03'1413.7
2016-May-27 09:33N 40°59' E 013°17'1413.8
2016-May-27 08:33N 40°51' E 013°31'1413.8
2016-May-27 07:33N 40°42' E 013°45'1413.9
2016-May-27 06:33N 40°35' E 014°01'1313.1
2016-May-27 05:33N 40°32' E 014°18'18 1.7
2016-May-26 18:33N 40°37' E 014°41'3 0.9
2016-May-26 15:31N 40°34' E 014°40'1212.0
2016-May-26 14:33N 40°26' E 014°30'1414.2
2016-May-26 13:34N 40°15' E 014°17'1414.2
2016-May-26 12:34N 40°05' E 014°04'1414.1
2016-May-26 11:34N 39°54' E 013°52'1414.1
2016-May-26 10:33N 39°44' E 013°40'1414.0
2016-May-26 09:33N 39°33' E 013°28'1913.9
2016-May-26 08:12N 39°19' E 013°12'913.7
2016-May-26 07:33N 39°12' E 013°04'1413.8
2016-May-26 06:33N 39°02' E 012°52'1413.9
2016-May-26 05:33N 38°52' E 012°40'1414.0
2016-May-26 04:33N 38°41' E 012°30'1614.0
2016-May-26 03:23N 38°28' E 012°16'1214.5
2016-May-26 02:33N 38°20' E 012°05'1514.7
2016-May-26 01:34N 38°09' E 011°53'1414.4
2016-May-26 00:34N 37°58' E 011°41'1414.0
2016-May-25 23:34N 37°47' E 011°29'2713.7
2016-May-25 21:33N 37°26' E 011°07'2013.7
2016-May-25 20:05N 37°13' E 010°48'1313.0
2016-May-25 19:07N 37°03' E 010°38'  
2016-May-23 03:16N 40°44' E 009°54'811.7
2016-May-23 02:33N 40°52' E 009°53'1211.6
2016-May-23 01:33N 41°04' E 009°52'2311.3
2016-May-22 23:33N 41°26' E 009°50'1111.4
2016-May-22 22:33N 41°38' E 009°50'1211.6
2016-May-22 21:33N 41°49' E 009°48'1211.7
2016-May-22 20:33N 42°01' E 009°48'1211.6
2016-May-22 19:33N 42°13' E 009°47'1111.2
2016-May-22 18:33N 42°24' E 009°46'1211.1
2016-May-22 17:30N 42°35' E 009°45'2211.2
2016-May-22 15:31N 42°57' E 009°40'1111.2
2016-May-22 14:33N 43°08' E 009°35'1111.4
2016-May-22 13:33N 43°18' E 009°29'1111.3
2016-May-22 12:33N 43°28' E 009°23'1211.5
2016-May-22 11:33N 43°39' E 009°16'1111.3
2016-May-22 10:33N 43°49' E 009°10'1111.1
2016-May-22 09:33N 43°59' E 009°04'1111.0
2016-May-22 08:34N 44°10' E 008°58'1110.7
2016-May-22 07:33N 44°20' E 008°57'5 5.1
2016-May-22 06:33N 44°24' E 008°53'0 0.0
2016-May-22 05:33N 44°24' E 008°53'0 0.0
2016-May-22 04:33N 44°24' E 008°53'0 0.0
2016-May-22 03:33N 44°24' E 008°53'0 0.0
2016-May-22 02:33N 44°24' E 008°53'0 0.0
2016-May-22 01:33N 44°24' E 008°53'0 0.0
2016-May-22 00:33N 44°24' E 008°53'0 0.0
2016-May-21 23:33N 44°24' E 008°53'0 0.0
2016-May-21 22:33N 44°24' E 008°53'0 0.0
2016-May-21 21:33N 44°24' E 008°53'0 0.0
2016-May-21 20:33N 44°24' E 008°53'0 0.0
2016-May-21 19:33N 44°24' E 008°53'0 0.0
2016-May-21 18:33N 44°24' E 008°53'0 0.0
2016-May-21 17:33N 44°24' E 008°53'0 0.0
2016-May-21 16:33N 44°24' E 008°53'0 0.0
2016-May-21 15:33N 44°24' E 008°53'0 0.0
2016-May-21 14:33N 44°24' E 008°53'0 0.0
2016-May-21 13:33N 44°24' E 008°53'0 0.0
2016-May-21 12:33N 44°24' E 008°53'0 0.0
2016-May-21 11:33N 44°24' E 008°53'0 0.0
2016-May-21 10:33N 44°24' E 008°53'0 0.0
2016-May-21 09:33N 44°24' E 008°53'0 0.0
2016-May-21 08:33N 44°24' E 008°53'0 0.0
2016-May-21 07:33N 44°24' E 008°53'2 1.8
2016-May-21 06:33N 44°24' E 008°55'6 6.3
2016-May-21 05:33N 44°18' E 009°00'1111.3
2016-May-21 04:33N 44°08' E 009°06'1211.6
2016-May-21 03:33N 43°57' E 009°11'1111.5
2016-May-21 02:33N 43°46' E 009°16'1111.4
2016-May-21 01:33N 43°35' E 009°22'1211.7
2016-May-21 00:33N 43°25' E 009°28'1211.6
2016-May-20 23:33N 43°14' E 009°33'1212.1
2016-May-20 22:33N 43°02' E 009°39'1512.9
2016-May-20 21:22N 42°51' E 009°53'18912.6
2016-May-20 06:24N 40°59' E 013°17'1012.3
2016-May-20 05:33N 40°52' E 013°28'  
Track history (hours):
 
Tides and Currents Weather Stations Pressure Air Temp Water Temp Dewpoint Dewpoint Depression Visibility Wind Speed Wind Dir Waves Ship Positions

Zeran (malta)

Last reported at 2016-May-29 09:33 UTC. Time now 2016-May-29 09:39 UTC.
Position N 43°57' E 009°07'.

Length 148 m; beam 24 m.

Type: Ship (hazmat cat A). MMSI: 249846000.

Date/timePositionNaut miles runAvg speedWind from/ knotsBaromVisibWave heightAir tempDewpointWater temp
2016-May-29 09:33N 43°57' E 009°07'1010.3
2016-May-29 08:33N 44°07' E 009°02'1010.4
2016-May-29 07:33N 44°17' E 008°57'9 7.3
2016-May-29 06:23N 44°24' E 008°53'0 0.0
2016-May-29 05:32N 44°24' E 008°53'0 0.0
2016-May-29 04:32N 44°24' E 008°53'0 0.0
2016-May-29 03:32N 44°24' E 008°53'0 0.0
2016-May-29 02:29N 44°24' E 008°53'0 0.0
2016-May-29 01:29N 44°24' E 008°53'0 0.0
2016-May-29 00:32N 44°24' E 008°53'0 0.0
2016-May-28 23:32N 44°24' E 008°53'0 0.0
2016-May-28 22:32N 44°24' E 008°53'0 0.0
2016-May-28 21:32N 44°24' E 008°53'0 0.0
2016-May-28 20:32N 44°24' E 008°53'0 0.0
2016-May-28 19:32N 44°24' E 008°53'0 0.0
2016-May-28 18:32N 44°24' E 008°53'0 0.0
2016-May-28 17:29N 44°24' E 008°53'0 0.0
2016-May-28 16:32N 44°24' E 008°53'0 0.0
2016-May-28 15:32N 44°24' E 008°53'0 0.0
2016-May-28 14:32N 44°24' E 008°53'0 0.0
2016-May-28 13:32N 44°24' E 008°53'0 0.0
2016-May-28 12:29N 44°24' E 008°53'0 0.0
2016-May-28 11:29N 44°24' E 008°53'0 0.0
2016-May-28 10:32N 44°24' E 008°53'0 0.0
2016-May-28 09:32N 44°24' E 008°53'0 0.0
2016-May-28 08:32N 44°24' E 008°53'0 0.1
2016-May-28 07:33N 44°24' E 008°52'6 5.8
2016-May-28 06:33N 44°21' E 008°59'9 9.5
2016-May-28 05:33N 44°12' E 009°03'1414.5
2016-May-28 04:33N 43°58' E 009°10'1414.2
2016-May-28 03:33N 43°45' E 009°18'1414.4
2016-May-28 02:33N 43°32' E 009°24'1414.2
2016-May-28 01:33N 43°18' E 009°31'1414.2
2016-May-28 00:33N 43°05' E 009°38'1414.0
2016-May-27 23:33N 42°53' E 009°48'1414.2
2016-May-27 22:33N 42°44' E 010°03'1413.8
2016-May-27 21:33N 42°35' E 010°17'1413.6
2016-May-27 20:33N 42°26' E 010°31'3013.8
2016-May-27 18:22N 42°08' E 011°03'1113.7
2016-May-27 17:33N 42°02' E 011°16'1413.7
2016-May-27 16:33N 41°54' E 011°31'1413.9
2016-May-27 15:34N 41°46' E 011°46'1414.1
2016-May-27 14:33N 41°38' E 012°02'1413.9
2016-May-27 13:33N 41°30' E 012°17'1413.6
2016-May-27 12:33N 41°22' E 012°32'1413.5
2016-May-27 11:33N 41°15' E 012°48'1413.7
2016-May-27 10:33N 41°08' E 013°03'1413.7
2016-May-27 09:33N 40°59' E 013°17'1413.8
2016-May-27 08:33N 40°51' E 013°31'1413.8
2016-May-27 07:33N 40°42' E 013°45'1413.9
2016-May-27 06:33N 40°35' E 014°01'1313.1
2016-May-27 05:33N 40°32' E 014°18'18 1.7
2016-May-26 18:33N 40°37' E 014°41'3 0.9
2016-May-26 15:31N 40°34' E 014°40'1212.0
2016-May-26 14:33N 40°26' E 014°30'1414.2
2016-May-26 13:34N 40°15' E 014°17'1414.2
2016-May-26 12:34N 40°05' E 014°04'1414.1
2016-May-26 11:34N 39°54' E 013°52'1414.1
2016-May-26 10:33N 39°44' E 013°40'1414.0
2016-May-26 09:33N 39°33' E 013°28'1913.9
2016-May-26 08:12N 39°19' E 013°12'913.7
2016-May-26 07:33N 39°12' E 013°04'1413.8
2016-May-26 06:33N 39°02' E 012°52'1413.9
2016-May-26 05:33N 38°52' E 012°40'1414.0
2016-May-26 04:33N 38°41' E 012°30'1614.0
2016-May-26 03:23N 38°28' E 012°16'1214.5
2016-May-26 02:33N 38°20' E 012°05'1514.7
2016-May-26 01:34N 38°09' E 011°53'1414.4
2016-May-26 00:34N 37°58' E 011°41'1414.0
2016-May-25 23:34N 37°47' E 011°29'2713.7
2016-May-25 21:33N 37°26' E 011°07'2013.7
2016-May-25 20:05N 37°13' E 010°48'1313.0
2016-May-25 19:07N 37°03' E 010°38'  
2016-May-23 03:16N 40°44' E 009°54'811.7
2016-May-23 02:33N 40°52' E 009°53'1211.6
2016-May-23 01:33N 41°04' E 009°52'2311.3
2016-May-22 23:33N 41°26' E 009°50'1111.4
2016-May-22 22:33N 41°38' E 009°50'1211.6
2016-May-22 21:33N 41°49' E 009°48'1211.7
2016-May-22 20:33N 42°01' E 009°48'1211.6
2016-May-22 19:33N 42°13' E 009°47'1111.2
2016-May-22 18:33N 42°24' E 009°46'1211.1
2016-May-22 17:30N 42°35' E 009°45'2211.2
2016-May-22 15:31N 42°57' E 009°40'1111.2
2016-May-22 14:33N 43°08' E 009°35'1111.4
2016-May-22 13:33N 43°18' E 009°29'1111.3
2016-May-22 12:33N 43°28' E 009°23'1211.5
2016-May-22 11:33N 43°39' E 009°16'1111.3
2016-May-22 10:33N 43°49' E 009°10'1111.1
2016-May-22 09:33N 43°59' E 009°04'1111.0
2016-May-22 08:34N 44°10' E 008°58'1110.7
2016-May-22 07:33N 44°20' E 008°57'5 5.1
2016-May-22 06:33N 44°24' E 008°53'0 0.0
2016-May-22 05:33N 44°24' E 008°53'0 0.0
2016-May-22 04:33N 44°24' E 008°53'0 0.0
2016-May-22 03:33N 44°24' E 008°53'0 0.0
2016-May-22 02:33N 44°24' E 008°53'0 0.0
2016-May-22 01:33N 44°24' E 008°53'0 0.0
2016-May-22 00:33N 44°24' E 008°53'0 0.0
2016-May-21 23:33N 44°24' E 008°53'0 0.0
2016-May-21 22:33N 44°24' E 008°53'0 0.0
2016-May-21 21:33N 44°24' E 008°53'0 0.0
2016-May-21 20:33N 44°24' E 008°53'0 0.0
2016-May-21 19:33N 44°24' E 008°53'0 0.0
2016-May-21 18:33N 44°24' E 008°53'0 0.0
2016-May-21 17:33N 44°24' E 008°53'0 0.0
2016-May-21 16:33N 44°24' E 008°53'0 0.0
2016-May-21 15:33N 44°24' E 008°53'0 0.0
2016-May-21 14:33N 44°24' E 008°53'0 0.0
2016-May-21 13:33N 44°24' E 008°53'0 0.0
2016-May-21 12:33N 44°24' E 008°53'0 0.0
2016-May-21 11:33N 44°24' E 008°53'0 0.0
2016-May-21 10:33N 44°24' E 008°53'0 0.0
2016-May-21 09:33N 44°24' E 008°53'0 0.0
2016-May-21 08:33N 44°24' E 008°53'0 0.0
2016-May-21 07:33N 44°24' E 008°53'2 1.8
2016-May-21 06:33N 44°24' E 008°55'6 6.3
2016-May-21 05:33N 44°18' E 009°00'1111.3
2016-May-21 04:33N 44°08' E 009°06'1211.6
2016-May-21 03:33N 43°57' E 009°11'1111.5
2016-May-21 02:33N 43°46' E 009°16'1111.4
2016-May-21 01:33N 43°35' E 009°22'1211.7
2016-May-21 00:33N 43°25' E 009°28'1211.6
2016-May-20 23:33N 43°14' E 009°33'1212.1
2016-May-20 22:33N 43°02' E 009°39'1512.9
2016-May-20 21:22N 42°51' E 009°53'18912.6
2016-May-20 06:24N 40°59' E 013°17'1012.3
2016-May-20 05:33N 40°52' E 013°28'  

Dump ship's entire track history